createdAt,value
2022-10-17T00:02:01.267Z,19.50
2022-10-17T00:04:27.851Z,20.00
2022-10-17T00:06:54.891Z,20.70
2022-10-17T00:09:21.358Z,20.50
2022-10-17T00:11:47.914Z,20.80
2022-10-17T00:14:14.376Z,18.90
2022-10-17T00:16:40.925Z,19.10
2022-10-17T00:19:07.469Z,18.90
2022-10-17T00:21:34.426Z,18.00
2022-10-17T00:24:01.695Z,19.00
2022-10-17T00:26:28.390Z,19.80
2022-10-17T00:28:55.375Z,21.70
2022-10-17T00:31:23.995Z,21.10
2022-10-17T00:33:51.737Z,21.90
2022-10-17T00:36:24.633Z,21.50
2022-10-17T00:38:54.040Z,21.80
2022-10-17T00:41:23.998Z,21.30
2022-10-17T00:43:55.575Z,21.50
2022-10-17T00:46:23.597Z,20.10
2022-10-17T00:48:52.918Z,19.60
2022-10-17T00:51:24.052Z,19.60
2022-10-17T00:53:51.208Z,18.20
2022-10-17T00:56:21.032Z,17.70
2022-10-17T00:58:48.181Z,20.20
2022-10-17T01:01:15.364Z,21.50
2022-10-17T01:03:42.042Z,19.60
2022-10-17T01:06:08.626Z,20.90
2022-10-17T01:08:35.468Z,20.30
2022-10-17T01:11:28.571Z,19.70
2022-10-17T01:14:09.206Z,22.40
2022-10-17T01:17:14.712Z,21.40
2022-10-17T01:20:10.038Z,21.20
2022-10-17T01:22:45.916Z,21.50
2022-10-17T01:25:57.351Z,21.20
2022-10-17T01:28:26.573Z,22.80
2022-10-17T01:31:04.851Z,22.10
2022-10-17T01:33:37.015Z,21.40
2022-10-17T01:36:42.167Z,22.40
2022-10-17T01:39:47.891Z,23.00
2022-10-17T01:42:34.132Z,22.30
2022-10-17T01:45:03.619Z,21.60
2022-10-17T01:47:33.663Z,22.70
2022-10-17T01:50:10.750Z,21.60
2022-10-17T01:52:43.861Z,21.70
2022-10-17T01:55:17.354Z,20.30
2022-10-17T01:57:51.625Z,20.70
2022-10-17T02:00:22.267Z,20.80
2022-10-17T02:02:53.050Z,15.20
2022-10-17T02:05:24.913Z,21.10
2022-10-17T02:07:51.451Z,21.30
2022-10-17T02:10:32.646Z,19.70
2022-10-17T02:13:15.255Z,19.40
2022-10-17T02:16:00.197Z,20.50
2022-10-17T02:18:46.944Z,19.90
2022-10-17T02:21:18.986Z,20.70
2022-10-17T02:24:18.394Z,20.00
2022-10-17T02:26:56.536Z,19.80
2022-10-17T02:29:30.867Z,20.90
2022-10-17T02:32:06.879Z,20.30
2022-10-17T02:35:03.772Z,21.10
2022-10-17T02:37:32.055Z,19.50
2022-10-17T02:40:00.924Z,20.30
2022-10-17T02:42:29.578Z,22.30
2022-10-17T02:45:00.431Z,22.30
2022-10-17T02:47:49.917Z,22.30
2022-10-17T02:50:16.708Z,21.30
2022-10-17T02:52:52.978Z,23.20
2022-10-17T02:55:31.807Z,21.20
2022-10-17T02:58:08.605Z,22.60
2022-10-17T03:00:35.540Z,23.60
2022-10-17T03:03:01.932Z,22.30
2022-10-17T03:05:29.750Z,23.60
2022-10-17T03:07:57.211Z,24.00
2022-10-17T03:10:23.749Z,23.70
2022-10-17T03:12:50.288Z,23.50
2022-10-17T03:15:16.844Z,23.60
2022-10-17T03:17:43.364Z,20.70
2022-10-17T03:20:10.432Z,21.10
2022-10-17T03:22:37.164Z,21.00
2022-10-17T03:25:03.804Z,21.30
2022-10-17T03:27:30.566Z,21.30
2022-10-17T03:29:57.808Z,22.00
2022-10-17T03:32:24.351Z,22.10
2022-10-17T03:34:50.896Z,21.20
2022-10-17T03:37:17.369Z,21.10
2022-10-17T03:39:43.873Z,21.40
2022-10-17T03:42:10.302Z,21.50
2022-10-17T03:44:36.849Z,21.40
2022-10-17T03:47:03.388Z,23.00
2022-10-17T03:49:29.929Z,22.50
2022-10-17T03:51:56.471Z,22.80
2022-10-17T03:54:23.012Z,21.80
2022-10-17T03:56:49.632Z,22.30
2022-10-17T03:59:16.843Z,22.60
2022-10-17T04:01:43.867Z,23.90
2022-10-17T04:04:10.817Z,25.50
2022-10-17T04:06:38.478Z,25.70
2022-10-17T04:09:06.684Z,24.80
2022-10-17T04:11:33.621Z,25.60
2022-10-17T04:14:00.246Z,26.10
2022-10-17T04:16:27.408Z,25.80
2022-10-17T04:18:59.086Z,25.80
2022-10-17T04:21:27.395Z,27.00
2022-10-17T04:23:58.619Z,24.60
2022-10-17T04:26:25.980Z,25.70
2022-10-17T04:28:53.168Z,24.70
2022-10-17T04:31:19.781Z,23.70
2022-10-17T04:33:50.798Z,24.80
2022-10-17T04:36:19.736Z,24.70
2022-10-17T04:38:47.055Z,24.60
2022-10-17T04:41:16.176Z,26.60
2022-10-17T04:43:45.599Z,26.30
2022-10-17T04:46:15.587Z,27.00
2022-10-17T04:48:42.378Z,25.60
2022-10-17T04:51:15.065Z,26.40
2022-10-17T04:53:43.648Z,25.30
2022-10-17T04:56:21.535Z,27.60
2022-10-17T04:58:48.954Z,25.30
2022-10-17T05:01:19.112Z,27.30
2022-10-17T05:03:46.756Z,26.80
2022-10-17T05:06:15.891Z,25.50
2022-10-17T05:08:42.623Z,28.90
2022-10-17T05:11:17.668Z,26.40
2022-10-17T05:13:44.289Z,26.20
2022-10-17T05:16:10.722Z,26.70
2022-10-17T05:18:37.269Z,25.90
2022-10-17T05:21:04.425Z,24.90
2022-10-17T05:23:30.954Z,27.40
2022-10-17T05:25:57.490Z,27.80
2022-10-17T05:28:24.434Z,27.10
2022-10-17T05:30:51.020Z,26.70
2022-10-17T05:33:17.845Z,27.60
2022-10-17T05:35:44.287Z,27.20
2022-10-17T05:38:10.804Z,27.30
2022-10-17T05:40:37.444Z,25.90
2022-10-17T05:43:03.921Z,24.80
2022-10-17T05:45:30.419Z,23.90
2022-10-17T05:47:57.265Z,23.00
2022-10-17T05:50:23.806Z,20.20
2022-10-17T05:52:53.596Z,18.90
2022-10-17T05:55:20.164Z,16.50
2022-10-17T05:57:46.705Z,14.70
2022-10-17T06:00:13.967Z,13.70
2022-10-17T06:02:40.435Z,12.30
2022-10-17T06:05:07.454Z,12.40
2022-10-17T06:07:33.997Z,12.50
2022-10-17T06:10:00.541Z,11.30
2022-10-17T06:12:27.315Z,9.90
2022-10-17T06:14:54.235Z,10.60
2022-10-17T06:17:21.079Z,10.90
2022-10-17T06:19:47.621Z,10.20
2022-10-17T06:22:14.421Z,10.60
2022-10-17T06:24:41.371Z,10.70
2022-10-17T06:27:11.707Z,10.30
2022-10-17T06:29:38.594Z,10.10
2022-10-17T06:32:06.906Z,10.10
2022-10-17T06:34:35.269Z,10.20
2022-10-17T06:37:01.929Z,10.90
2022-10-17T06:39:28.453Z,10.50
2022-10-17T06:41:55.029Z,9.70
2022-10-17T06:44:21.537Z,9.80
2022-10-17T06:46:48.000Z,9.50
2022-10-17T06:49:14.514Z,9.90
2022-10-17T06:51:41.056Z,10.10
2022-10-17T06:54:07.527Z,9.60
2022-10-17T06:56:34.139Z,10.60
2022-10-17T06:59:00.672Z,9.90
2022-10-17T07:01:27.212Z,10.00
2022-10-17T07:03:53.649Z,11.30
2022-10-17T07:06:20.494Z,12.10
2022-10-17T07:08:47.035Z,12.90
2022-10-17T07:11:16.471Z,13.70
2022-10-17T07:13:43.905Z,12.50
2022-10-17T07:16:11.988Z,12.60
2022-10-17T07:18:38.760Z,13.80
2022-10-17T07:21:05.667Z,13.50
2022-10-17T07:23:32.521Z,13.50
2022-10-17T07:26:04.496Z,12.90
2022-10-17T07:28:31.054Z,12.10
2022-10-17T07:31:06.731Z,11.90
2022-10-17T07:33:33.386Z,12.10
2022-10-17T07:36:00.793Z,11.30
2022-10-17T07:38:30.919Z,12.20
2022-10-17T07:40:59.782Z,11.00
2022-10-17T07:43:27.565Z,11.20
2022-10-17T07:45:54.845Z,10.90
2022-10-17T07:48:23.219Z,10.90
2022-10-17T07:50:49.864Z,10.80
2022-10-17T07:53:16.916Z,11.00
2022-10-17T07:55:43.879Z,11.30
2022-10-17T07:58:10.625Z,10.50
2022-10-17T08:00:37.771Z,11.20
2022-10-17T08:03:04.703Z,10.60
2022-10-17T08:05:32.290Z,9.90
2022-10-17T08:07:59.047Z,9.80
2022-10-17T08:10:25.756Z,9.80
2022-10-17T08:12:52.189Z,9.80
2022-10-17T08:15:18.730Z,9.50
2022-10-17T08:17:45.231Z,9.30
2022-10-17T08:20:12.121Z,8.80
2022-10-17T08:22:38.807Z,9.00
2022-10-17T08:25:05.882Z,8.20
2022-10-17T08:27:36.209Z,8.80
2022-10-17T08:30:03.605Z,8.30
2022-10-17T08:32:30.365Z,8.20
2022-10-17T08:34:57.094Z,8.50
2022-10-17T08:37:23.752Z,8.00
2022-10-17T08:39:50.233Z,8.80
2022-10-17T08:42:50.400Z,8.10
2022-10-17T08:45:21.544Z,8.60
2022-10-17T08:47:54.533Z,8.60
2022-10-17T08:50:32.852Z,8.30
2022-10-17T08:53:11.610Z,8.40
2022-10-17T08:55:46.536Z,8.40
2022-10-17T08:58:15.002Z,8.10
2022-10-17T09:00:48.100Z,8.80
2022-10-17T09:03:30.269Z,8.50
2022-10-17T09:06:05.864Z,8.20
2022-10-17T09:08:38.333Z,8.10
2022-10-17T09:11:26.357Z,8.90
2022-10-17T09:14:19.401Z,8.70
2022-10-17T09:17:01.974Z,7.30
2022-10-17T09:19:39.063Z,6.80
2022-10-17T09:22:22.904Z,7.20
2022-10-17T09:24:54.240Z,7.20
2022-10-17T09:27:48.634Z,6.70
2022-10-17T09:30:51.562Z,6.80
2022-10-17T09:33:42.215Z,6.20
2022-10-17T09:36:20.442Z,7.40
2022-10-17T09:38:52.109Z,7.00
2022-10-17T09:41:44.256Z,7.90
2022-10-17T09:44:25.397Z,8.00
2022-10-17T09:47:23.330Z,7.40
2022-10-17T09:49:50.666Z,7.50
2022-10-17T09:52:22.339Z,8.10
2022-10-17T09:54:52.962Z,6.90
2022-10-17T09:57:21.502Z,6.70
2022-10-17T09:59:57.760Z,7.10
2022-10-17T10:02:26.110Z,7.30
2022-10-17T10:05:17.116Z,6.90
2022-10-17T10:08:00.961Z,6.80
2022-10-17T10:10:29.305Z,6.40
2022-10-17T10:13:15.390Z,7.00
2022-10-17T10:15:44.171Z,6.00
2022-10-17T10:18:26.151Z,6.10
2022-10-17T10:21:14.319Z,6.90
2022-10-17T10:23:43.909Z,6.70
2022-10-17T10:26:25.997Z,6.30
2022-10-17T10:28:57.017Z,6.40
2022-10-17T10:31:33.366Z,7.60
2022-10-17T10:34:03.039Z,6.80
2022-10-17T10:36:49.016Z,6.40
2022-10-17T10:39:31.833Z,5.60
2022-10-17T10:41:59.966Z,6.30
2022-10-17T10:44:29.498Z,5.30
2022-10-17T10:47:21.326Z,6.00
2022-10-17T10:49:50.369Z,7.00
2022-10-17T10:52:50.894Z,6.70
2022-10-17T10:55:26.445Z,6.70
2022-10-17T10:57:58.421Z,7.70
2022-10-17T11:00:28.713Z,7.90
2022-10-17T11:03:08.453Z,7.60
2022-10-17T11:05:48.452Z,7.30
2022-10-17T11:08:31.123Z,7.40
2022-10-17T11:11:03.664Z,7.30
2022-10-17T11:14:11.739Z,7.20
2022-10-17T11:17:04.523Z,7.00
2022-10-17T11:19:46.776Z,7.30
2022-10-17T11:22:26.667Z,7.10
2022-10-17T11:25:05.407Z,6.70
2022-10-17T11:27:34.303Z,6.70
2022-10-17T11:30:01.668Z,6.70
2022-10-17T11:32:36.907Z,6.70
2022-10-17T11:35:08.126Z,6.20
2022-10-17T11:37:41.033Z,6.10
2022-10-17T11:40:27.361Z,6.00
2022-10-17T11:43:03.924Z,6.50
2022-10-17T11:45:42.754Z,6.80
2022-10-17T11:48:17.688Z,6.10
2022-10-17T11:54:15.113Z,6.70
2022-10-17T11:57:28.370Z,6.30
2022-10-17T12:00:16.362Z,5.90
2022-10-17T12:02:53.449Z,6.40
2022-10-17T12:05:43.443Z,6.60
2022-10-17T12:08:37.196Z,6.30
2022-10-17T12:11:11.237Z,6.00
2022-10-17T12:13:37.715Z,6.30
2022-10-17T12:16:19.468Z,6.00
2022-10-17T12:19:10.588Z,6.40
2022-10-17T12:22:06.923Z,6.00
2022-10-17T12:24:43.312Z,6.00
2022-10-17T12:27:38.208Z,6.30
2022-10-17T12:30:24.438Z,6.30
2022-10-17T12:33:08.536Z,5.80
2022-10-17T12:35:37.276Z,5.80
2022-10-17T12:38:17.790Z,6.60
2022-10-17T12:43:15.546Z,6.80
2022-10-17T12:45:58.116Z,6.50
2022-10-17T12:48:33.659Z,6.30
2022-10-17T12:53:57.160Z,4.00
2022-10-17T12:56:39.569Z,4.40
2022-10-17T12:59:21.267Z,5.00
2022-10-17T13:01:52.856Z,4.70
2022-10-17T13:04:20.319Z,4.70
2022-10-17T13:06:51.141Z,4.60
2022-10-17T13:09:37.562Z,4.80
2022-10-17T13:12:12.188Z,4.60
2022-10-17T13:14:42.319Z,4.90
2022-10-17T13:17:29.924Z,4.60
2022-10-17T13:19:57.178Z,5.30
2022-10-17T13:22:30.521Z,4.80
2022-10-17T13:25:13.939Z,6.30
2022-10-17T13:27:40.394Z,5.60
2022-10-17T13:30:32.142Z,6.20
2022-10-17T13:33:00.279Z,6.40
2022-10-17T13:38:28.650Z,6.60
2022-10-17T13:41:02.005Z,6.10
2022-10-17T13:43:38.033Z,5.60
2022-10-17T13:46:19.162Z,5.30
2022-10-17T13:48:51.586Z,5.20
2022-10-17T13:51:18.170Z,4.70
2022-10-17T13:53:44.666Z,5.10
2022-10-17T13:56:29.531Z,5.10
2022-10-17T13:59:00.002Z,4.70
2022-10-17T14:01:29.368Z,5.40
2022-10-17T14:04:07.767Z,5.20
2022-10-17T14:06:45.039Z,4.50
2022-10-17T14:09:23.513Z,5.40
2022-10-17T14:11:58.337Z,5.10
2022-10-17T14:14:26.418Z,6.40
2022-10-17T14:16:53.462Z,5.50
2022-10-17T14:19:33.414Z,4.70
2022-10-17T14:22:18.810Z,5.90
2022-10-17T14:24:45.847Z,6.50
2022-10-17T14:27:32.335Z,5.80
2022-10-17T14:30:01.025Z,7.00
2022-10-17T14:35:30.274Z,7.70
2022-10-17T14:37:58.870Z,8.20
2022-10-17T14:40:27.542Z,7.40
2022-10-17T14:42:58.195Z,7.00
2022-10-17T14:45:31.557Z,7.20
2022-10-17T14:48:06.521Z,7.90
2022-10-17T14:50:33.513Z,7.00
2022-10-17T14:53:12.212Z,7.20
2022-10-17T14:55:40.977Z,6.80
2022-10-17T14:58:25.234Z,8.00
2022-10-17T15:00:51.878Z,7.20
2022-10-17T15:03:18.490Z,8.10
2022-10-17T15:05:49.901Z,8.60
2022-10-17T15:08:18.852Z,9.20
2022-10-17T15:10:46.642Z,9.20
2022-10-17T15:13:27.556Z,8.30
2022-10-17T15:15:55.459Z,9.20
2022-10-17T15:18:21.947Z,9.10
2022-10-17T15:20:55.244Z,8.80
2022-10-17T15:23:31.287Z,9.20
2022-10-17T15:25:57.829Z,9.70
2022-10-17T15:28:24.485Z,8.70
2022-10-17T15:30:51.089Z,11.10
2022-10-17T15:33:17.545Z,11.80
2022-10-17T15:35:44.837Z,11.80
2022-10-17T15:38:17.011Z,11.20
2022-10-17T15:40:43.444Z,11.50
2022-10-17T15:43:10.049Z,12.90
2022-10-17T15:45:36.621Z,14.60
2022-10-17T15:48:06.925Z,22.80
2022-10-17T15:50:33.458Z,44.40
2022-10-17T15:53:06.055Z,30.20
2022-10-17T15:55:32.681Z,26.90
2022-10-17T15:57:59.219Z,19.40
2022-10-17T16:00:25.956Z,17.40
2022-10-17T16:02:52.601Z,17.40
2022-10-17T16:05:24.581Z,16.40
2022-10-17T16:07:54.845Z,18.60
2022-10-17T16:10:22.482Z,20.40
2022-10-17T16:12:49.613Z,20.10
2022-10-17T16:15:19.857Z,19.90
2022-10-17T16:17:46.310Z,18.60
2022-10-17T16:20:13.453Z,19.60
2022-10-17T16:22:41.658Z,18.10
2022-10-17T16:25:18.058Z,19.40
2022-10-17T16:27:45.071Z,18.30
2022-10-17T16:30:12.334Z,21.50
2022-10-17T16:32:38.981Z,20.40
2022-10-17T16:35:07.237Z,27.50
2022-10-17T16:37:33.935Z,27.90
2022-10-17T16:40:00.429Z,48.60
2022-10-17T16:42:27.044Z,55.00
2022-10-17T16:44:53.862Z,42.70
2022-10-17T16:47:20.396Z,37.00
2022-10-17T16:49:47.121Z,29.00
2022-10-17T16:52:13.642Z,28.00
2022-10-17T16:54:40.165Z,34.60
2022-10-17T16:57:06.958Z,36.50
2022-10-17T16:59:33.500Z,60.80
2022-10-17T17:02:00.017Z,43.60
2022-10-17T17:04:26.680Z,48.60
2022-10-17T17:06:53.336Z,35.90
2022-10-17T17:09:19.968Z,35.10
2022-10-17T17:11:46.737Z,44.40
2022-10-17T17:14:14.063Z,48.30
2022-10-17T17:16:40.735Z,56.40
2022-10-17T17:19:10.490Z,58.70
2022-10-17T17:21:37.266Z,42.40
2022-10-17T17:24:05.065Z,50.60
2022-10-17T17:26:34.218Z,63.20
2022-10-17T17:29:00.806Z,43.40
2022-10-17T17:31:30.503Z,45.70
2022-10-17T17:33:57.594Z,45.40
2022-10-17T17:36:34.505Z,43.90
2022-10-17T17:39:02.610Z,47.80
2022-10-17T17:41:29.375Z,53.80
2022-10-17T17:43:56.713Z,39.10
2022-10-17T17:46:24.689Z,38.00
2022-10-17T17:48:52.865Z,35.80
2022-10-17T17:51:24.302Z,29.30
2022-10-17T17:53:54.135Z,30.30
2022-10-17T17:56:27.358Z,29.00
2022-10-17T17:58:56.945Z,32.00
2022-10-17T18:01:25.465Z,30.40
2022-10-17T18:03:53.224Z,31.20
2022-10-17T18:06:21.577Z,29.90
2022-10-17T18:08:50.787Z,41.30
2022-10-17T18:11:19.729Z,39.90
2022-10-17T18:16:19.013Z,29.30
2022-10-17T18:18:45.647Z,31.20
2022-10-17T18:21:14.030Z,31.80
2022-10-17T18:23:41.927Z,29.30
2022-10-17T18:26:09.369Z,29.30
2022-10-17T18:28:38.105Z,28.10
2022-10-17T18:31:11.165Z,27.30
2022-10-17T18:33:38.495Z,30.10
2022-10-17T18:36:07.738Z,27.80
2022-10-17T18:38:34.289Z,29.20
2022-10-17T18:41:04.996Z,30.60
2022-10-17T18:43:34.177Z,30.30
2022-10-17T18:46:08.534Z,33.10
2022-10-17T18:48:40.788Z,33.60
2022-10-17T18:51:07.918Z,32.90
2022-10-17T18:53:34.991Z,32.20
2022-10-17T18:56:01.492Z,34.00
2022-10-17T18:58:28.066Z,32.40
2022-10-17T19:00:54.537Z,32.00
2022-10-17T19:03:21.268Z,31.00
2022-10-17T19:05:47.705Z,31.50
2022-10-17T19:08:15.400Z,30.10
2022-10-17T19:10:42.679Z,28.90
2022-10-17T19:13:10.788Z,28.00
2022-10-17T19:15:40.808Z,28.30
2022-10-17T19:18:07.265Z,29.70
2022-10-17T19:20:33.784Z,30.30
2022-10-17T19:23:00.618Z,29.70
2022-10-17T19:25:27.157Z,29.70
2022-10-17T19:27:53.710Z,28.10
2022-10-17T19:30:20.254Z,30.60
2022-10-17T19:32:46.671Z,29.50
2022-10-17T19:35:13.211Z,33.10
2022-10-17T19:37:39.775Z,36.40
2022-10-17T19:40:07.138Z,37.70
2022-10-17T19:42:34.979Z,37.00
2022-10-17T19:45:01.845Z,31.70
2022-10-17T19:47:28.900Z,31.60
2022-10-17T19:49:55.496Z,32.20
2022-10-17T19:52:23.726Z,31.10
2022-10-17T19:54:50.227Z,34.60
2022-10-17T19:57:16.801Z,30.20
2022-10-17T19:59:43.242Z,33.20
2022-10-17T20:02:12.385Z,33.10
2022-10-17T20:04:49.558Z,32.00
2022-10-17T20:07:25.491Z,32.70
2022-10-17T20:09:51.931Z,33.20
2022-10-17T20:12:18.369Z,30.70
2022-10-17T20:14:44.783Z,31.20
2022-10-17T20:17:11.343Z,31.70
2022-10-17T20:19:37.790Z,29.80
2022-10-17T20:22:04.324Z,29.70
2022-10-17T20:24:30.864Z,29.80
2022-10-17T20:26:57.300Z,30.60
2022-10-17T20:29:23.847Z,30.50
2022-10-17T20:31:51.100Z,33.40
2022-10-17T20:34:18.895Z,34.40
2022-10-17T20:36:46.231Z,34.40
2022-10-17T20:39:15.540Z,34.90
2022-10-17T20:41:43.002Z,37.10
2022-10-17T20:44:10.115Z,39.70
2022-10-17T20:46:39.743Z,39.00
2022-10-17T20:49:15.235Z,39.70
2022-10-17T20:51:42.149Z,37.90
2022-10-17T20:54:09.120Z,37.90
2022-10-17T20:56:35.959Z,39.10
2022-10-17T20:59:10.360Z,39.10
2022-10-17T21:01:36.899Z,38.30
2022-10-17T21:04:27.159Z,36.90
2022-10-17T21:06:50.761Z,36.30
2022-10-17T21:09:17.943Z,33.70
2022-10-17T21:11:44.379Z,36.10
2022-10-17T21:14:11.790Z,82.80
2022-10-17T21:16:39.596Z,134.60
2022-10-17T21:19:06.274Z,84.90
2022-10-17T21:21:35.823Z,73.60
2022-10-17T21:24:08.140Z,45.90
2022-10-17T21:26:37.195Z,42.80
2022-10-17T21:29:04.606Z,37.20
2022-10-17T21:31:32.897Z,38.90
2022-10-17T21:34:01.776Z,34.40
2022-10-17T21:36:28.636Z,33.90
2022-10-17T21:38:56.628Z,34.80
2022-10-17T21:41:25.545Z,33.10
2022-10-17T21:43:58.165Z,33.80
2022-10-17T21:46:25.730Z,35.50
2022-10-17T21:48:52.902Z,34.60
2022-10-17T21:51:22.532Z,34.80
2022-10-17T21:53:50.114Z,34.10
2022-10-17T21:56:21.431Z,34.00
2022-10-17T21:58:49.054Z,31.60
2022-10-17T22:01:20.212Z,31.40
2022-10-17T22:03:50.059Z,32.80
2022-10-17T22:09:11.657Z,31.10
2022-10-17T22:11:38.351Z,32.50
2022-10-17T22:14:08.381Z,30.80
2022-10-17T22:16:34.978Z,33.40
2022-10-17T22:19:06.156Z,33.60
2022-10-17T22:21:35.252Z,32.60
2022-10-17T22:24:04.685Z,32.40
2022-10-17T22:26:33.069Z,30.80
2022-10-17T22:29:00.589Z,31.50
2022-10-17T22:31:27.187Z,31.10
2022-10-17T22:33:53.647Z,31.10
2022-10-17T22:36:20.361Z,31.50
2022-10-17T22:38:46.826Z,31.30
2022-10-17T22:41:13.540Z,31.00
2022-10-17T22:43:39.991Z,29.90
2022-10-17T22:46:07.443Z,32.40
2022-10-17T22:48:34.909Z,30.60
2022-10-17T22:51:02.473Z,31.40
2022-10-17T22:53:28.908Z,30.30
2022-10-17T22:56:17.097Z,29.60
2022-10-17T22:58:43.557Z,31.80
2022-10-17T23:01:14.610Z,31.60
2022-10-17T23:03:41.758Z,31.30
2022-10-17T23:06:08.247Z,30.90
2022-10-17T23:08:34.681Z,31.20
2022-10-17T23:11:01.332Z,31.90
2022-10-17T23:13:27.881Z,33.40
2022-10-17T23:15:56.358Z,32.70
2022-10-17T23:18:24.182Z,32.40
2022-10-17T23:20:51.623Z,31.30
2022-10-17T23:23:19.048Z,31.60
2022-10-17T23:25:45.995Z,30.90
2022-10-17T23:28:12.841Z,32.30
2022-10-17T23:30:39.992Z,31.00
2022-10-17T23:33:07.352Z,31.00
2022-10-17T23:35:35.445Z,29.70
2022-10-17T23:38:02.380Z,31.20
2022-10-17T23:40:29.224Z,31.60
2022-10-17T23:42:55.676Z,31.20
2022-10-17T23:45:22.250Z,30.20
2022-10-17T23:47:48.821Z,30.70
2022-10-17T23:50:15.509Z,29.50
2022-10-17T23:52:42.132Z,30.00
2022-10-17T23:55:09.595Z,31.50
2022-10-17T23:57:35.996Z,30.30
